Time;durP1;ratioP1;P1;durP2;ratioP2;P2;SDS_P1;SDS_P2;PMS_P1;PMS_P2;Temp;Humidity;BMP_temperature;BMP_pressure;BME280_temperature;BME280_humidity;BME280_pressure;Samples;Min_cycle;Max_cycle;Signal;HPM_P1;HPM_P2
2022/10/10 00:01:38;;;;;;;;;;;333.50;2329.60;;;;;;5091651;28;19919;-63
2022/10/10 00:04:04;;;;;;;;;;;333.50;2329.60;;;;;;5091802;28;19908;-62
2022/10/10 00:06:30;;;;;;;;;;;333.50;2329.60;;;;;;5091400;28;19916;-64
2022/10/10 00:08:55;;;;;;;;;;;333.50;2329.60;;;;;;5091304;28;20292;-64
2022/10/10 00:11:22;;;;;;;;;;;333.40;2329.60;;;;;;5090976;28;19908;-61
2022/10/10 00:13:48;;;;;;;;;;;333.50;2329.60;;;;;;5090785;28;20430;-68
2022/10/10 00:16:14;;;;;;;;;;;333.40;2329.60;;;;;;5090977;28;19943;-69
2022/10/10 00:18:40;;;;;;;;;;;333.40;2329.60;;;;;;5091174;28;19912;-61
2022/10/10 00:21:06;;;;;;;;;;;333.40;2329.60;;;;;;5091594;28;19908;-63
2022/10/10 00:23:32;;;;;;;;;;;358.80;2329.60;;;;;;5091130;28;19908;-61
2022/10/10 00:25:57;;;;;;;;;;;333.40;2329.60;;;;;;5091002;28;19994;-61
2022/10/10 00:28:23;;;;;;;;;;;333.40;2329.60;;;;;;5091218;28;20400;-62
2022/10/10 00:30:49;;;;;;;;;;;333.40;2329.60;;;;;;5090937;28;20387;-61
2022/10/10 00:33:14;;;;;;;;;;;333.30;2329.60;;;;;;5090813;28;19908;-62
2022/10/10 00:35:40;;;;;;;;;;;333.30;2329.60;;;;;;5090912;28;19969;-61
2022/10/10 00:38:06;;;;;;;;;;;333.30;2329.60;;;;;;5091161;28;20015;-61
2022/10/10 00:40:31;;;;;;;;;;;333.30;2329.60;;;;;;5090909;28;19909;-61
2022/10/10 00:42:57;;;;;;;;;;;333.20;2329.60;;;;;;5090533;28;20343;-61
2022/10/10 00:45:38;;;;;;;;;;;333.20;2329.60;;;;;;5091273;28;19995;-62
2022/10/10 00:48:06;;;;;;;;;;;333.20;2329.60;;;;;;5090925;28;19995;-61
2022/10/10 00:50:34;;;;;;;;;;;333.20;2329.60;;;;;;5090961;28;19908;-61
2022/10/10 00:53:02;;;;;;;;;;;333.20;2329.60;;;;;;5090619;28;19908;-61
2022/10/10 00:55:27;;;;;;;;;;;333.20;2329.60;;;;;;5090564;28;20003;-62
2022/10/10 00:57:53;;;;;;;;;;;333.20;2329.60;;;;;;5090828;28;20003;-70
2022/10/10 01:00:18;;;;;;;;;;;333.20;2329.60;;;;;;5090445;28;19915;-70
2022/10/10 01:02:44;;;;;;;;;;;333.20;2329.60;;;;;;5090488;28;19908;-62
2022/10/10 01:05:10;;;;;;;;;;;333.20;2329.60;;;;;;5090411;28;19951;-61
2022/10/10 01:07:36;;;;;;;;;;;333.20;2329.60;;;;;;5090609;28;19965;-70
2022/10/10 01:10:05;;;;;;;;;;;333.20;2329.60;;;;;;5090563;28;20358;-62
2022/10/10 01:12:49;;;;;;;;;;;333.20;2329.60;;;;;;5090304;28;20270;-61
2022/10/10 01:15:20;;;;;;;;;;;333.20;2329.60;;;;;;5090529;28;19908;-62
2022/10/10 01:17:52;;;;;;;;;;;333.20;2329.60;;;;;;5090377;28;19916;-61
2022/10/10 01:20:20;;;;;;;;;;;333.10;2329.60;;;;;;5090299;28;20331;-60
2022/10/10 01:22:49;;;;;;;;;;;333.10;2329.60;;;;;;5090367;28;19908;-61
2022/10/10 01:25:33;;;;;;;;;;;333.10;2329.60;;;;;;5090591;28;20002;-69
2022/10/10 01:28:17;;;;;;;;;;;333.10;2329.60;;;;;;5090190;28;19914;-69
2022/10/10 01:30:43;;;;;;;;;;;333.10;2329.60;;;;;;5090167;28;19908;-69
2022/10/10 01:33:18;;;;;;;;;;;333.00;2329.60;;;;;;5089839;28;19912;-61
2022/10/10 01:35:46;;;;;;;;;;;333.10;2329.60;;;;;;5090459;28;19916;-61
2022/10/10 01:38:14;;;;;;;;;;;333.00;2329.60;;;;;;5090118;28;19916;-61
2022/10/10 01:40:40;;;;;;;;;;;332.90;2329.60;;;;;;5090011;28;19916;-61
2022/10/10 01:43:07;;;;;;;;;;;332.90;2329.60;;;;;;5090068;28;19908;-61
2022/10/10 01:45:32;;;;;;;;;;;332.90;2329.60;;;;;;5090212;28;19912;-60
2022/10/10 01:48:00;;;;;;;;;;;332.90;2329.60;;;;;;5089868;28;19912;-61
2022/10/10 01:50:26;;;;;;;;;;;332.90;2329.60;;;;;;5090356;28;19912;-61
2022/10/10 01:53:01;;;;;;;;;;;332.80;2329.60;;;;;;5090520;28;20327;-62
2022/10/10 01:55:29;;;;;;;;;;;332.90;2329.60;;;;;;5094276;28;19970;-62
2022/10/10 01:58:15;;;;;;;;;;;332.90;2329.60;;;;;;5094187;28;19938;-69
2022/10/10 02:00:57;;;;;;;;;;;332.90;2329.60;;;;;;5071304;28;19909;-62
2022/10/10 02:03:26;;;;;;;;;;;332.90;2329.60;;;;;;5071601;28;19909;-68
2022/10/10 02:05:55;;;;;;;;;;;332.90;2329.60;;;;;;5071698;28;20346;-69
2022/10/10 02:08:24;;;;;;;;;;;332.80;2329.60;;;;;;5071229;28;19927;-68
2022/10/10 02:10:52;;;;;;;;;;;332.80;2329.60;;;;;;5071248;28;19917;-62
2022/10/10 02:13:18;;;;;;;;;;;332.80;2329.60;;;;;;5071383;28;20412;-63
2022/10/10 02:15:46;;;;;;;;;;;332.80;2329.60;;;;;;5071342;28;20377;-61
2022/10/10 02:18:13;;;;;;;;;;;332.90;2329.60;;;;;;5071199;28;19963;-62
2022/10/10 02:20:40;;;;;;;;;;;332.90;2329.60;;;;;;5071155;28;20016;-62
2022/10/10 02:23:06;;;;;;;;;;;332.80;2329.60;;;;;;5071410;28;19954;-61
2022/10/10 02:25:36;;;;;;;;;;;308.10;2304.00;;;;;;5071398;28;19952;-61
2022/10/10 02:28:04;;;;;;;;;;;308.10;2304.00;;;;;;5071083;28;19913;-64
2022/10/10 02:30:33;;;;;;;;;;;308.10;2304.00;;;;;;5070855;28;20378;-60
2022/10/10 02:33:00;;;;;;;;;;;308.10;2304.00;;;;;;5054028;28;20419;-60
2022/10/10 02:35:31;;;;;;;;;;;308.10;2304.00;;;;;;5070967;28;19912;-68
2022/10/10 02:37:57;;;;;;;;;;;308.10;2304.00;;;;;;5083868;28;19916;-68
2022/10/10 02:40:25;;;;;;;;;;;308.10;2304.00;;;;;;5093004;28;20350;-69
2022/10/10 02:42:51;;;;;;;;;;;308.00;2304.00;;;;;;5093054;28;19984;-61
2022/10/10 02:45:18;;;;;;;;;;;308.10;2304.00;;;;;;5093475;28;19908;-61
2022/10/10 02:47:43;;;;;;;;;;;308.10;2304.00;;;;;;5093387;28;19909;-68
2022/10/10 02:50:10;;;;;;;;;;;308.10;2304.00;;;;;;5092924;28;20281;-63
2022/10/10 02:52:35;;;;;;;;;;;308.00;2304.00;;;;;;5093114;28;19908;-67
2022/10/10 02:55:01;;;;;;;;;;;308.00;2304.00;;;;;;5092945;28;19908;-66
2022/10/10 02:57:26;;;;;;;;;;;308.10;2304.00;;;;;;5092924;28;19920;-62
2022/10/10 02:59:52;;;;;;;;;;;308.00;2304.00;;;;;;5093267;28;19914;-67
2022/10/10 03:02:17;;;;;;;;;;;308.00;2304.00;;;;;;5092727;28;20358;-62
2022/10/10 03:04:43;;;;;;;;;;;308.00;2304.00;;;;;;5091548;28;20297;-62
2022/10/10 03:07:09;;;;;;;;;;;308.10;2304.00;;;;;;5092619;28;19928;-62
2022/10/10 03:09:35;;;;;;;;;;;308.10;2304.00;;;;;;5093109;28;19915;-64
2022/10/10 03:12:00;;;;;;;;;;;308.10;2304.00;;;;;;5092497;28;19912;-61
2022/10/10 03:14:26;;;;;;;;;;;332.80;2329.60;;;;;;5092745;28;20285;-65
2022/10/10 03:16:52;;;;;;;;;;;308.10;2304.00;;;;;;5092345;28;19973;-60
2022/10/10 03:19:17;;;;;;;;;;;332.80;2329.60;;;;;;5092453;28;19915;-62
2022/10/10 03:21:43;;;;;;;;;;;332.80;2329.60;;;;;;5092634;28;19998;-72
2022/10/10 03:24:08;;;;;;;;;;;332.90;2329.60;;;;;;5092212;28;19919;-64
2022/10/10 03:26:34;;;;;;;;;;;332.90;2329.60;;;;;;5092677;28;19940;-63
2022/10/10 03:29:03;;;;;;;;;;;332.90;2329.60;;;;;;5092293;28;19908;-64
2022/10/10 03:31:28;;;;;;;;;;;332.90;2329.60;;;;;;5092265;28;20012;-63
2022/10/10 03:33:54;;;;;;;;;;;332.90;2329.60;;;;;;5092324;28;20029;-64
2022/10/10 03:36:20;;;;;;;;;;;332.90;2329.60;;;;;;5091903;28;19912;-64
2022/10/10 03:38:45;;;;;;;;;;;333.00;2329.60;;;;;;5092208;28;19915;-72
2022/10/10 03:41:11;;;;;;;;;;;332.90;2329.60;;;;;;5092107;28;19908;-64
2022/10/10 03:43:36;;;;;;;;;;;332.90;2329.60;;;;;;5092284;28;20000;-71
2022/10/10 03:46:02;;;;;;;;;;;332.90;2329.60;;;;;;5092155;28;19908;-70
2022/10/10 03:48:28;;;;;;;;;;;332.90;2329.60;;;;;;5091700;28;19947;-64
2022/10/10 03:50:53;;;;;;;;;;;332.80;2329.60;;;;;;5092185;28;19915;-63
2022/10/10 03:53:19;;;;;;;;;;;332.80;2329.60;;;;;;5091891;28;19919;-63
2022/10/10 03:55:44;;;;;;;;;;;332.80;2329.60;;;;;;5091948;28;20357;-72
2022/10/10 03:58:10;;;;;;;;;;;308.10;2304.00;;;;;;5091678;28;19942;-68
2022/10/10 04:00:36;;;;;;;;;;;308.10;2304.00;;;;;;5091886;28;19950;-64
2022/10/10 04:03:05;;;;;;;;;;;308.10;2304.00;;;;;;5091415;28;19916;-66
2022/10/10 04:05:34;;;;;;;;;;;308.10;2304.00;;;;;;5091633;28;19972;-63
2022/10/10 04:08:00;;;;;;;;;;;308.10;2304.00;;;;;;5091393;28;19920;-63
2022/10/10 04:10:25;;;;;;;;;;;308.10;2304.00;;;;;;5091794;28;19908;-64
2022/10/10 04:12:51;;;;;;;;;;;308.00;2304.00;;;;;;5091241;28;19908;-71
2022/10/10 04:15:16;;;;;;;;;;;308.10;2304.00;;;;;;5091462;28;19968;-63
2022/10/10 04:17:42;;;;;;;;;;;308.10;2304.00;;;;;;5090920;28;19922;-63
2022/10/10 04:20:08;;;;;;;;;;;308.10;2304.00;;;;;;5091399;28;20449;-63
2022/10/10 04:22:33;;;;;;;;;;;308.00;2304.00;;;;;;5091480;28;20297;-63
2022/10/10 04:24:59;;;;;;;;;;;308.00;2304.00;;;;;;5091093;28;19912;-63
2022/10/10 04:27:24;;;;;;;;;;;308.10;2304.00;;;;;;5091396;28;19947;-63
2022/10/10 04:29:50;;;;;;;;;;;308.10;2304.00;;;;;;5091020;28;20350;-68
2022/10/10 04:32:15;;;;;;;;;;;308.10;2304.00;;;;;;5091300;28;19908;-63
2022/10/10 04:34:41;;;;;;;;;;;308.10;2304.00;;;;;;5090944;28;20445;-63
2022/10/10 04:37:06;;;;;;;;;;;308.10;2304.00;;;;;;5091423;28;19969;-64
2022/10/10 04:39:32;;;;;;;;;;;308.10;2304.00;;;;;;5091212;28;19915;-63
2022/10/10 04:41:57;;;;;;;;;;;308.10;2304.00;;;;;;5090802;28;19958;-63
2022/10/10 04:44:23;;;;;;;;;;;308.10;2304.00;;;;;;5090826;28;19908;-63
2022/10/10 04:46:48;;;;;;;;;;;308.10;2304.00;;;;;;5090536;28;19966;-63
2022/10/10 04:49:14;;;;;;;;;;;308.10;2304.00;;;;;;5091128;28;19912;-68
2022/10/10 04:51:40;;;;;;;;;;;308.10;2304.00;;;;;;5089992;28;20409;-63
2022/10/10 04:54:05;;;;;;;;;;;308.10;2304.00;;;;;;5090041;28;19908;-70
2022/10/10 04:56:31;;;;;;;;;;;308.10;2304.00;;;;;;5090362;28;20018;-68
2022/10/10 04:58:56;;;;;;;;;;;308.10;2304.00;;;;;;5091090;28;19908;-71
2022/10/10 05:01:22;;;;;;;;;;;308.10;2304.00;;;;;;5091011;28;20338;-63
2022/10/10 05:03:47;;;;;;;;;;;308.10;2304.00;;;;;;5090618;28;19915;-63
2022/10/10 05:06:13;;;;;;;;;;;308.10;2304.00;;;;;;5091036;28;19912;-63
2022/10/10 05:08:38;;;;;;;;;;;308.10;2304.00;;;;;;5090632;28;20046;-62
2022/10/10 05:11:04;;;;;;;;;;;332.80;2329.60;;;;;;5091053;28;19914;-71
2022/10/10 05:13:29;;;;;;;;;;;332.90;2329.60;;;;;;5090724;28;19999;-62
2022/10/10 05:15:55;;;;;;;;;;;332.90;2329.60;;;;;;5090683;28;20350;-63
2022/10/10 05:18:20;;;;;;;;;;;333.10;2329.60;;;;;;5090454;28;20345;-63
2022/10/10 05:20:46;;;;;;;;;;;333.10;2329.60;;;;;;5090773;28;19911;-63
2022/10/10 05:23:12;;;;;;;;;;;333.30;2329.60;;;;;;5090392;28;19915;-63
2022/10/10 05:25:38;;;;;;;;;;;333.30;2329.60;;;;;;5090616;28;19908;-64
2022/10/10 05:28:04;;;;;;;;;;;333.40;2329.60;;;;;;5090167;28;19970;-63
2022/10/10 05:30:29;;;;;;;;;;;333.50;2329.60;;;;;;5090552;28;19912;-63
2022/10/10 05:32:55;;;;;;;;;;;333.70;2329.60;;;;;;5090540;28;20365;-62
2022/10/10 05:35:20;;;;;;;;;;;333.70;2329.60;;;;;;5090631;28;20281;-62
2022/10/10 05:37:46;;;;;;;;;;;358.40;2329.60;;;;;;5090637;28;19917;-63
2022/10/10 05:40:11;;;;;;;;;;;358.40;2329.60;;;;;;5090399;28;19954;-64
2022/10/10 05:42:37;;;;;;;;;;;358.50;2329.60;;;;;;5090390;28;19908;-64
2022/10/10 05:45:03;;;;;;;;;;;358.50;2329.60;;;;;;5090722;28;19908;-63
2022/10/10 05:47:28;;;;;;;;;;;358.60;2329.60;;;;;;5090330;28;19914;-64
2022/10/10 05:49:54;;;;;;;;;;;358.70;2329.60;;;;;;5090852;28;19924;-63
2022/10/10 05:52:19;;;;;;;;;;;358.80;2329.60;;;;;;5090445;28;20354;-62
2022/10/10 05:54:45;;;;;;;;;;;358.80;2329.60;;;;;;5090591;28;20360;-62
2022/10/10 05:57:10;;;;;;;;;;;358.70;2329.60;;;;;;5090220;28;19916;-62
2022/10/10 05:59:36;;;;;;;;;;;358.80;2329.60;;;;;;5090609;28;20011;-62
2022/10/10 06:02:01;;;;;;;;;;;358.80;2329.60;;;;;;5090086;28;19919;-64
2022/10/10 06:04:27;;;;;;;;;;;358.90;2329.60;;;;;;5090320;28;19916;-63
2022/10/10 06:06:52;;;;;;;;;;;359.00;2329.60;;;;;;5090184;28;19932;-71
2022/10/10 06:09:18;;;;;;;;;;;359.00;2329.60;;;;;;5090280;28;19916;-71
2022/10/10 06:11:43;;;;;;;;;;;359.00;2329.60;;;;;;5090141;28;20250;-63
2022/10/10 06:14:09;;;;;;;;;;;359.00;2329.60;;;;;;5090135;28;19998;-64
2022/10/10 06:16:35;;;;;;;;;;;359.10;2329.60;;;;;;5090214;28;20046;-62
2022/10/10 06:19:02;;;;;;;;;;;359.00;2329.60;;;;;;5090072;28;19970;-62
2022/10/10 06:21:27;;;;;;;;;;;359.00;2329.60;;;;;;5090076;28;19913;-63
2022/10/10 06:23:53;;;;;;;;;;;359.20;2329.60;;;;;;5090348;28;19908;-62
2022/10/10 06:26:18;;;;;;;;;;;359.30;2329.60;;;;;;5089896;28;20251;-61
2022/10/10 06:28:44;;;;;;;;;;;384.00;2329.60;;;;;;5090252;28;20378;-62
2022/10/10 06:31:13;;;;;;;;;;;359.20;2329.60;;;;;;5089911;28;20277;-61
2022/10/10 06:33:40;;;;;;;;;;;384.00;2329.60;;;;;;5089670;28;20007;-61
2022/10/10 06:36:07;;;;;;;;;;;384.10;2329.60;;;;;;5090267;28;20011;-62
2022/10/10 06:38:36;;;;;;;;;;;384.30;2329.60;;;;;;5090099;28;19916;-61
2022/10/10 06:41:03;;;;;;;;;;;384.40;2329.60;;;;;;5093611;28;19908;-60
2022/10/10 06:43:28;;;;;;;;;;;384.20;2329.60;;;;;;5093485;28;19987;-61
2022/10/10 06:45:54;;;;;;;;;;;384.10;2329.60;;;;;;5093623;28;19936;-62
2022/10/10 06:48:19;;;;;;;;;;;384.10;2329.60;;;;;;5093265;28;19915;-62
2022/10/10 06:50:58;;;;;;;;;;;384.60;2329.60;;;;;;5093616;28;19935;-62
2022/10/10 06:53:23;;;;;;;;;;;384.80;2329.60;;;;;;5093645;28;19916;-63
2022/10/10 06:55:49;;;;;;;;;;;409.70;2355.20;;;;;;5093230;28;19912;-62
2022/10/10 06:58:14;;;;;;;;;;;409.80;2355.20;;;;;;5093429;28;19916;-62
2022/10/10 07:00:40;;;;;;;;;;;410.00;2355.20;;;;;;5093165;28;19908;-63
2022/10/10 07:03:06;;;;;;;;;;;410.00;2355.20;;;;;;5093268;28;19916;-62
2022/10/10 07:05:31;;;;;;;;;;;384.90;2329.60;;;;;;5093050;28;19919;-62
2022/10/10 07:07:57;;;;;;;;;;;384.80;2329.60;;;;;;5093081;28;19946;-62
2022/10/10 07:10:22;;;;;;;;;;;384.70;2329.60;;;;;;5093283;28;19955;-62
2022/10/10 07:12:48;;;;;;;;;;;409.80;2355.20;;;;;;5093041;28;19915;-63
2022/10/10 07:15:14;;;;;;;;;;;409.60;2355.20;;;;;;5093117;28;19908;-63
2022/10/10 07:17:39;;;;;;;;;;;410.10;2355.20;;;;;;5092702;28;19960;-62
2022/10/10 07:20:05;;;;;;;;;;;384.90;2329.60;;;;;;5093128;28;20015;-62
2022/10/10 07:22:31;;;;;;;;;;;409.70;2355.20;;;;;;5093041;28;19908;-61
2022/10/10 07:24:56;;;;;;;;;;;384.90;2329.60;;;;;;5093082;28;19908;-62
2022/10/10 07:27:22;;;;;;;;;;;410.00;2355.20;;;;;;5092684;28;19915;-62
2022/10/10 07:29:47;;;;;;;;;;;410.50;2355.20;;;;;;5092658;28;19939;-63
2022/10/10 07:32:14;;;;;;;;;;;435.70;2355.20;;;;;;5092697;28;19938;-63
2022/10/10 07:34:39;;;;;;;;;;;460.80;2380.80;;;;;;5092389;28;19923;-63
2022/10/10 07:37:05;;;;;;;;;;;436.10;2355.20;;;;;;5092728;28;19916;-63
2022/10/10 07:39:30;;;;;;;;;;;461.20;2380.80;;;;;;5092563;28;20377;-63
2022/10/10 07:41:56;;;;;;;;;;;486.90;2380.80;;;;;;5092701;28;19951;-63
2022/10/10 07:44:24;;;;;;;;;;;512.50;2380.80;;;;;;5092307;28;20008;-60
2022/10/10 07:46:50;;;;;;;;;;;512.90;2380.80;;;;;;5092177;28;19919;-63
2022/10/10 07:49:15;;;;;;;;;;;538.10;2406.40;;;;;;5092348;28;19908;-63
2022/10/10 07:51:41;;;;;;;;;;;563.20;2432.00;;;;;;5091429;28;19908;-63
2022/10/10 07:54:08;;;;;;;;;;;563.50;2406.40;;;;;;5092665;28;19908;-61
2022/10/10 07:56:33;;;;;;;;;;;563.70;2355.20;;;;;;5092434;28;19995;-63
2022/10/10 07:58:59;;;;;;;;;;;563.70;2304.00;;;;;;5092066;28;20014;-63
2022/10/10 08:01:25;;;;;;;;;;;563.40;2355.20;;;;;;5092208;28;20001;-63
2022/10/10 08:03:50;;;;;;;;;;;537.90;2406.40;;;;;;5091714;28;19912;-63
2022/10/10 08:06:16;;;;;;;;;;;537.60;2406.40;;;;;;5092005;28;19912;-61
2022/10/10 08:08:42;;;;;;;;;;;512.30;2380.80;;;;;;5091735;28;19927;-63
2022/10/10 08:11:08;;;;;;;;;;;487.20;2380.80;;;;;;5091936;28;20315;-63
2022/10/10 08:13:35;;;;;;;;;;;487.30;2380.80;;;;;;5092035;28;19909;-63
2022/10/10 08:16:00;;;;;;;;;;;512.90;2380.80;;;;;;5091633;28;19908;-62
2022/10/10 08:18:26;;;;;;;;;;;537.60;2406.40;;;;;;5091714;28;19922;-62
2022/10/10 08:21:17;;;;;;;;;;;537.60;2406.40;;;;;;5091538;28;19908;-63
2022/10/10 08:23:43;;;;;;;;;;;563.40;2432.00;;;;;;5090501;28;19915;-62
2022/10/10 08:26:10;;;;;;;;;;;563.80;2432.00;;;;;;5091406;28;19912;-63
2022/10/10 08:28:36;;;;;;;;;;;564.00;2432.00;;;;;;5091759;28;20003;-62
2022/10/10 08:31:06;;;;;;;;;;;564.10;2432.00;;;;;;5091436;28;19915;-62
2022/10/10 08:33:31;;;;;;;;;;;563.70;2432.00;;;;;;5091179;28;19916;-62
2022/10/10 08:35:57;;;;;;;;;;;564.00;2406.40;;;;;;5091557;28;19970;-62
2022/10/10 08:38:23;;;;;;;;;;;564.00;2406.40;;;;;;5091468;28;19960;-63
2022/10/10 08:40:50;;;;;;;;;;;563.90;2432.00;;;;;;5091332;28;20008;-62
2022/10/10 08:43:28;;;;;;;;;;;563.90;2432.00;;;;;;5091359;28;19998;-62
2022/10/10 08:45:56;;;;;;;;;;;563.80;2432.00;;;;;;5091304;28;19916;-62
2022/10/10 08:48:23;;;;;;;;;;;563.60;2406.40;;;;;;5091175;28;19908;-62
2022/10/10 08:50:51;;;;;;;;;;;563.70;2380.80;;;;;;5091084;28;19908;-63
2022/10/10 08:53:21;;;;;;;;;;;563.70;2406.40;;;;;;5091245;28;19908;-62
2022/10/10 08:55:47;;;;;;;;;;;563.30;2432.00;;;;;;5091170;28;19915;-62
2022/10/10 08:58:31;;;;;;;;;;;563.40;2432.00;;;;;;5090857;28;19916;-62
2022/10/10 09:01:07;;;;;;;;;;;563.80;2406.40;;;;;;5091365;28;20220;-62
2022/10/10 09:03:45;;;;;;;;;;;563.40;2432.00;;;;;;5089948;28;19912;-62
2022/10/10 09:06:26;;;;;;;;;;;563.40;2432.00;;;;;;5090904;28;19912;-62
2022/10/10 09:09:09;;;;;;;;;;;538.40;2406.40;;;;;;5090763;28;19927;-62
2022/10/10 09:11:53;;;;;;;;;;;538.50;2406.40;;;;;;5091321;28;19915;-62
2022/10/10 09:14:19;;;;;;;;;;;563.30;2432.00;;;;;;5090731;28;19999;-62
2022/10/10 09:16:44;;;;;;;;;;;537.60;2406.40;;;;;;5090887;28;20003;-62
2022/10/10 09:19:23;;;;;;;;;;;512.90;2380.80;;;;;;5090541;28;20354;-62
2022/10/10 09:21:52;;;;;;;;;;;512.80;2380.80;;;;;;5090704;28;19916;-62
2022/10/10 09:24:23;;;;;;;;;;;538.00;2406.40;;;;;;5090939;28;19908;-62
2022/10/10 09:26:51;;;;;;;;;;;512.90;2380.80;;;;;;5090476;28;19961;-62
2022/10/10 09:29:35;;;;;;;;;;;538.20;2406.40;;;;;;5090733;28;19909;-62
2022/10/10 09:32:21;;;;;;;;;;;537.90;2406.40;;;;;;5090324;28;20014;-62
2022/10/10 09:34:47;;;;;;;;;;;538.00;2406.40;;;;;;5090075;28;19915;-62
2022/10/10 09:37:15;;;;;;;;;;;512.70;2380.80;;;;;;5090387;28;20361;-62
2022/10/10 09:39:44;;;;;;;;;;;512.90;2380.80;;;;;;5090487;28;20432;-62
2022/10/10 09:42:10;;;;;;;;;;;512.90;2380.80;;;;;;5090431;28;19918;-62
2022/10/10 09:44:37;;;;;;;;;;;512.90;2380.80;;;;;;5090716;28;19954;-62
2022/10/10 09:47:02;;;;;;;;;;;537.80;2406.40;;;;;;5090631;28;19965;-62
2022/10/10 09:49:28;;;;;;;;;;;538.20;2406.40;;;;;;5090458;28;20375;-62
2022/10/10 09:51:54;;;;;;;;;;;563.40;2432.00;;;;;;5090443;28;19908;-62
2022/10/10 09:54:20;;;;;;;;;;;563.60;2432.00;;;;;;5090419;28;19912;-62
2022/10/10 09:56:56;;;;;;;;;;;564.10;2432.00;;;;;;5090219;28;19923;-63
2022/10/10 09:59:43;;;;;;;;;;;564.10;2432.00;;;;;;5090227;28;20358;-62
2022/10/10 10:02:25;;;;;;;;;;;564.00;2432.00;;;;;;5090338;28;19908;-63
2022/10/10 10:04:51;;;;;;;;;;;588.90;2432.00;;;;;;5090097;28;19953;-62
2022/10/10 10:07:17;;;;;;;;;;;589.00;2432.00;;;;;;5090148;28;20282;-62
2022/10/10 10:10:09;;;;;;;;;;;589.20;2432.00;;;;;;5090238;28;19908;-62
2022/10/10 10:12:42;;;;;;;;;;;589.40;2432.00;;;;;;5089204;28;19908;-63
2022/10/10 10:15:24;;;;;;;;;;;589.00;2406.40;;;;;;5092654;28;19908;-62
2022/10/10 10:18:08;;;;;;;;;;;564.10;2432.00;;;;;;5093746;28;19920;-62
2022/10/10 10:20:34;;;;;;;;;;;589.20;2406.40;;;;;;5094421;28;19947;-63
2022/10/10 10:23:00;;;;;;;;;;;589.20;2406.40;;;;;;5094062;28;19912;-63
2022/10/10 10:25:31;;;;;;;;;;;589.00;2406.40;;;;;;5094225;28;19908;-62
2022/10/10 10:28:09;;;;;;;;;;;564.10;2432.00;;;;;;5094104;28;20242;-61
2022/10/10 10:30:35;;;;;;;;;;;563.90;2432.00;;;;;;5094357;28;20327;-62
2022/10/10 10:33:19;;;;;;;;;;;563.70;2432.00;;;;;;5093416;28;19995;-63
2022/10/10 10:35:49;;;;;;;;;;;563.50;2432.00;;;;;;5094053;28;19921;-63
2022/10/10 10:38:18;;;;;;;;;;;563.30;2432.00;;;;;;5093948;28;19916;-62
2022/10/10 10:40:43;;;;;;;;;;;563.40;2432.00;;;;;;5093795;28;20298;-62
2022/10/10 10:43:12;;;;;;;;;;;538.50;2406.40;;;;;;5093494;28;19919;-62
2022/10/10 10:45:40;;;;;;;;;;;563.40;2432.00;;;;;;5093495;28;19962;-62
2022/10/10 10:48:29;;;;;;;;;;;563.70;2432.00;;;;;;5093730;28;19915;-61
2022/10/10 10:50:57;;;;;;;;;;;538.30;2406.40;;;;;;5071128;28;19915;-61
2022/10/10 10:53:26;;;;;;;;;;;538.50;2406.40;;;;;;5071144;28;19913;-62
2022/10/10 10:55:58;;;;;;;;;;;563.40;2432.00;;;;;;5070855;28;19908;-61
2022/10/10 10:58:29;;;;;;;;;;;563.60;2432.00;;;;;;5070954;28;20385;-61
2022/10/10 11:00:54;;;;;;;;;;;563.80;2432.00;;;;;;5070990;28;19912;-62
2022/10/10 11:03:26;;;;;;;;;;;563.40;2432.00;;;;;;5070552;28;19919;-62
2022/10/10 11:05:54;;;;;;;;;;;563.30;2432.00;;;;;;5070773;28;20003;-61
2022/10/10 11:08:20;;;;;;;;;;;563.60;2432.00;;;;;;5070432;28;20461;-61
2022/10/10 11:10:48;;;;;;;;;;;563.50;2432.00;;;;;;5070849;28;20000;-63
2022/10/10 11:13:32;;;;;;;;;;;538.50;2406.40;;;;;;5070978;28;19923;-61
2022/10/10 11:16:01;;;;;;;;;;;563.30;2432.00;;;;;;5070467;28;19913;-61
2022/10/10 11:18:40;;;;;;;;;;;563.60;2432.00;;;;;;5070400;28;20741;-62
2022/10/10 11:21:05;;;;;;;;;;;563.40;2432.00;;;;;;5070597;28;19909;-61
2022/10/10 11:23:46;;;;;;;;;;;563.40;2432.00;;;;;;5070527;28;19979;-61
2022/10/10 11:26:11;;;;;;;;;;;563.20;2432.00;;;;;;5069163;28;19908;-61
2022/10/10 11:28:38;;;;;;;;;;;563.60;2432.00;;;;;;5088157;28;19916;-61
2022/10/10 11:31:09;;;;;;;;;;;563.80;2432.00;;;;;;5092813;28;20251;-62
2022/10/10 11:33:39;;;;;;;;;;;564.00;2432.00;;;;;;5092833;28;19915;-61
2022/10/10 11:36:13;;;;;;;;;;;563.80;2380.80;;;;;;5092797;28;19917;-61
2022/10/10 11:39:15;;;;;;;;;;;564.00;2380.80;;;;;;5092625;28;20086;-61
2022/10/10 11:41:43;;;;;;;;;;;563.50;2406.40;;;;;;5070026;28;19908;-62
2022/10/10 11:44:12;;;;;;;;;;;563.30;2432.00;;;;;;5069956;28;19908;-61
2022/10/10 11:46:40;;;;;;;;;;;563.40;2406.40;;;;;;5070012;28;19952;-61
2022/10/10 11:49:26;;;;;;;;;;;563.60;2406.40;;;;;;5070248;28;19962;-61
2022/10/10 11:52:07;;;;;;;;;;;563.30;2432.00;;;;;;5059655;28;19909;-61
2022/10/10 11:54:40;;;;;;;;;;;563.50;2432.00;;;;;;5070131;28;20039;-61
2022/10/10 11:57:09;;;;;;;;;;;563.80;2355.20;;;;;;5069948;28;19961;-61
2022/10/10 11:59:43;;;;;;;;;;;564.10;2355.20;;;;;;5070046;28;20001;-61
2022/10/10 12:02:16;;;;;;;;;;;564.00;2304.00;;;;;;5069790;28;19920;-60
2022/10/10 12:04:41;;;;;;;;;;;564.10;2304.00;;;;;;5069375;28;20378;-61
2022/10/10 12:07:17;;;;;;;;;;;589.20;2278.40;;;;;;5069563;28;19932;-61
2022/10/10 12:09:45;;;;;;;;;;;589.20;2278.40;;;;;;5069929;28;19909;-61
2022/10/10 12:12:13;;;;;;;;;;;589.10;2252.80;;;;;;5069403;28;19908;-61
2022/10/10 12:14:40;;;;;;;;;;;588.90;2252.80;;;;;;5071538;28;20074;-61
2022/10/10 12:17:15;;;;;;;;;;;589.00;2252.80;;;;;;5092098;28;19916;-61
2022/10/10 12:19:41;;;;;;;;;;;589.00;2252.80;;;;;;5091552;28;20021;-62
2022/10/10 12:22:10;;;;;;;;;;;589.40;2227.20;;;;;;5092087;28;19956;-61
2022/10/10 12:24:37;;;;;;;;;;;588.90;2227.20;;;;;;5091993;28;20018;-61
2022/10/10 12:27:02;;;;;;;;;;;588.90;2227.20;;;;;;5091713;28;19912;-62
2022/10/10 12:29:43;;;;;;;;;;;589.10;2227.20;;;;;;5091667;28;19908;-61
2022/10/10 12:32:22;;;;;;;;;;;589.00;2227.20;;;;;;5091578;28;19999;-62
2022/10/10 12:34:47;;;;;;;;;;;589.10;2176.00;;;;;;5091192;28;19912;-62
2022/10/10 12:37:20;;;;;;;;;;;589.10;2176.00;;;;;;5091382;28;19977;-61
2022/10/10 12:40:00;;;;;;;;;;;589.30;2201.60;;;;;;5091692;28;20281;-61
2022/10/10 12:42:31;;;;;;;;;;;589.30;2227.20;;;;;;5091472;28;20003;-61
2022/10/10 12:44:57;;;;;;;;;;;589.40;2227.20;;;;;;5091510;28;19908;-61
2022/10/10 12:47:42;;;;;;;;;;;589.50;2227.20;;;;;;5091256;28;19961;-61
2022/10/10 12:50:19;;;;;;;;;;;589.50;2227.20;;;;;;5090975;28;19944;-61
2022/10/10 12:52:46;;;;;;;;;;;589.70;2176.00;;;;;;5091239;28;19908;-61
2022/10/10 12:55:21;;;;;;;;;;;589.10;2201.60;;;;;;5091082;28;19909;-60
2022/10/10 12:57:47;;;;;;;;;;;589.30;2227.20;;;;;;5090718;28;19916;-61
2022/10/10 13:00:16;;;;;;;;;;;589.10;2227.20;;;;;;5091096;28;19955;-60
2022/10/10 13:02:44;;;;;;;;;;;589.10;2227.20;;;;;;5091127;28;19915;-61
2022/10/10 13:05:11;;;;;;;;;;;589.00;2201.60;;;;;;5090972;28;19943;-61
2022/10/10 13:07:37;;;;;;;;;;;588.90;2227.20;;;;;;5091080;28;19920;-61
2022/10/10 13:10:07;;;;;;;;;;;589.00;2201.60;;;;;;5091203;28;19908;-60
2022/10/10 13:12:33;;;;;;;;;;;589.10;2201.60;;;;;;5091125;28;19991;-60
2022/10/10 13:14:58;;;;;;;;;;;589.40;2176.00;;;;;;5090706;28;19955;-60
2022/10/10 13:17:31;;;;;;;;;;;589.30;2201.60;;;;;;5090989;28;19923;-60
2022/10/10 13:19:58;;;;;;;;;;;589.10;2176.00;;;;;;5090273;28;19912;-61
2022/10/10 13:22:24;;;;;;;;;;;589.10;2176.00;;;;;;5090435;28;19908;-61
2022/10/10 13:24:50;;;;;;;;;;;589.00;2176.00;;;;;;5087610;28;19916;-62
2022/10/10 13:27:18;;;;;;;;;;;589.10;2201.60;;;;;;5089164;28;19931;-61
2022/10/10 13:29:44;;;;;;;;;;;589.30;2176.00;;;;;;5089086;28;19912;-62
2022/10/10 13:32:12;;;;;;;;;;;589.40;2176.00;;;;;;5088834;28;19916;-62
2022/10/10 13:34:41;;;;;;;;;;;589.30;2150.40;;;;;;5088739;28;19916;-63
2022/10/10 13:37:07;;;;;;;;;;;589.00;2176.00;;;;;;5088494;28;19958;-62
2022/10/10 13:39:35;;;;;;;;;;;588.90;2176.00;;;;;;5089064;28;19944;-61
2022/10/10 13:42:01;;;;;;;;;;;564.10;2201.60;;;;;;5088754;28;19908;-62
2022/10/10 13:44:31;;;;;;;;;;;588.90;2176.00;;;;;;5089162;28;19912;-62
2022/10/10 13:46:57;;;;;;;;;;;588.90;2201.60;;;;;;5088878;28;19948;-62
2022/10/10 13:49:22;;;;;;;;;;;589.20;2150.40;;;;;;5089579;28;19954;-62